McLean, TX (79057)

7:49 PM CDT on July 29, 2015 (GMT -0500)
Perry Lefors | | Change Station
CLOSE
Current Station
Airport
Location: Pampa,
Elevation: 3245 ft
Nearby Weather Stations

Elev 3245 ft 35.61 °N, 101.00 °W | Updated 14 minutes ago

Clear
Clear
87 °F
Feels Like 91 °F
N
6
Wind Variable Wind from North

Today
High -- | Low -- °F
--% Chance of Precip.
Yesterday
High -- | Low -- °F
Precip. -- in
6:48 AM 8:48 PM
Waxing Gibbous, 97% visible
Pressure 30.16 in
Visibility 10.0 miles
Clouds Clear
Heat Index 91 °F
Dew Point 69 °F
Humidity 56%
Rainfall 0.00 in
Snow Depth Not available.
UV 1 out of 12
Pollen 4.30 out of 12
Air Quality Not available.
Flu Activity Not available.
METAR KPPA 300035Z AUTO 01005KT 10SM CLR 30/21 A3016 RMK AO2 T03040207

More Conditions Fewer Conditions

Pressure 30.16 in
Visibility 10.0 miles
Clouds Clear
Heat Index 91 °F
Dew Point 69 °F
Humidity 56%
Rainfall 0.00 in
Snow Depth Not available.
UV 1 out of 12
Pollen 4.30 out of 12
Air Quality Not available.
Flu Activity Not available.
METAR KPPA 300035Z AUTO 01005KT 10SM CLR 30/21 A3016 RMK AO2 T03040207

More Conditions Fewer Conditions

Nowcast | as of 6:47 PM CDT on July 29, 2015

Isolated showers and thunderstorms may develop across the eastern Oklahoma Panhandle and the eastern Texas Panhandle through 9 PM this evening. These showers and storms will likely affect locations along and east of a line from Turpin to Canadian to Wheeler and then to Wellington. The stronger storms will be capable of producing locally heavy rainfall along with wind gusts up to 40 to 50 mph. Rainfall amounts around a tenth of an inch to one quarter of an inch can be expected.

×

10-Day Weather Forecast

×

Almanac

Astronomy

Jul. 29, 2015 Rise Set
Actual Time
Civil Twilight
Nautical Twilight
Astronomical Twilight
Moon
Length of Visible Light
Length of Day
Tomorrow will be .
, % of the Moon is Illuminated

Today's Extremes

State Highs State Lows

Community

WunderPhotos

Upload Photos

1,842,233 photos uploaded!

WunderBlogs® & News

Nearby

Air Quality

  Air Quality AQ Index Pollutant
Not available.

Snow Depth

Station Depth Elevation

Earthquake Activity

City Distance Mag. Time & Date
Minimum magnitude displayed is 2.5.

Coastal Water Temperatures

Place Temperature

Stations

Nearby Weather Stations

Station Location Temp. Windchill Dew Point Humidity Wind Precip. Elev Updated Type